createdAt,value
2023-03-23T15:59:08.824Z,99611.66
2023-03-23T16:01:43.256Z,99612.27
2023-03-23T16:04:18.343Z,99618.58
2023-03-23T16:06:48.359Z,99623.25
2023-03-23T16:09:21.303Z,99627.34
2023-03-23T16:11:49.972Z,99624.42
2023-03-23T16:14:19.272Z,99630.46
2023-03-23T16:16:51.087Z,99629.96
2023-03-23T16:19:23.925Z,99637.91
2023-03-23T16:22:01.116Z,99636.96
2023-03-23T16:24:30.169Z,99640.80
2023-03-23T16:27:07.448Z,99642.05
2023-03-23T16:29:59.783Z,99643.37
2023-03-23T16:32:26.769Z,99643.88
2023-03-23T16:34:55.472Z,99640.30
2023-03-23T16:37:24.096Z,99643.71
2023-03-23T16:39:52.922Z,99644.77
2023-03-23T16:42:21.671Z,99646.08
2023-03-23T16:44:51.816Z,99652.05
2023-03-23T16:47:22.935Z,99649.77
2023-03-23T16:49:53.430Z,99655.90
2023-03-23T16:52:22.257Z,99657.04
2023-03-23T16:54:52.153Z,99659.41
2023-03-23T16:57:22.758Z,99659.83
2023-03-23T16:59:51.813Z,99659.55
2023-03-23T17:02:20.639Z,99658.80
2023-03-23T17:04:50.155Z,99660.09
2023-03-23T17:07:20.222Z,99668.70
2023-03-23T17:09:50.194Z,99674.23
2023-03-23T17:12:21.733Z,99673.17
2023-03-23T17:14:50.619Z,99673.14
2023-03-23T17:17:19.785Z,99674.56
2023-03-23T17:19:48.800Z,99668.60
2023-03-23T17:22:19.123Z,99671.33
2023-03-23T17:24:48.418Z,99675.20
2023-03-23T17:27:19.377Z,99680.94
2023-03-23T17:29:48.264Z,99680.04
2023-03-23T17:32:18.508Z,99679.19
2023-03-23T17:34:47.444Z,99681.96
2023-03-23T17:37:17.957Z,99674.89
2023-03-23T17:39:49.341Z,99672.42
2023-03-23T17:42:22.338Z,99677.98
2023-03-23T17:44:51.396Z,99686.58
2023-03-23T17:47:20.482Z,99694.09
2023-03-23T17:49:49.506Z,99700.96
2023-03-23T17:52:19.237Z,99703.35
2023-03-23T17:54:48.227Z,99708.36
2023-03-23T17:57:19.282Z,99713.25
2023-03-23T17:59:51.651Z,99719.36
2023-03-23T18:02:21.852Z,99728.02
2023-03-23T18:04:56.572Z,99728.75
2023-03-23T18:07:28.286Z,99726.77
2023-03-23T18:10:00.934Z,99731.48
2023-03-23T18:12:30.308Z,99734.84
2023-03-23T18:15:01.383Z,99733.83
2023-03-23T18:17:30.408Z,99734.20
2023-03-23T18:19:59.268Z,99733.23
2023-03-23T18:22:29.993Z,99725.83
2023-03-23T18:24:58.975Z,99718.73
2023-03-23T18:27:27.733Z,99718.02
2023-03-23T18:29:56.893Z,99725.83
2023-03-23T18:32:29.095Z,99724.96
2023-03-23T18:34:58.210Z,99724.05
2023-03-23T18:37:27.053Z,99726.42
2023-03-23T18:39:56.644Z,99723.13
2023-03-23T18:42:27.137Z,99725.48
2023-03-23T18:44:58.204Z,99727.16
2023-03-23T18:47:27.335Z,99725.12
2023-03-23T18:49:56.323Z,99725.33
2023-03-23T18:52:30.296Z,99725.78
2023-03-23T18:55:02.229Z,99727.42
2023-03-23T18:57:30.914Z,99726.49
2023-03-23T19:00:00.537Z,99728.18
2023-03-23T19:02:29.615Z,99720.98
2023-03-23T19:04:58.985Z,99718.84
2023-03-23T19:07:28.721Z,99717.57
2023-03-23T19:09:58.719Z,99717.08
2023-03-23T19:12:27.803Z,99717.39
2023-03-23T19:14:57.071Z,99710.80
2023-03-23T19:17:26.473Z,99717.23
2023-03-23T19:19:58.105Z,99724.55
2023-03-23T19:22:27.796Z,99731.64
2023-03-23T19:24:56.575Z,99738.97
2023-03-23T19:27:26.356Z,99739.42
2023-03-23T19:29:56.373Z,99736.91
2023-03-23T19:32:25.279Z,99737.36
2023-03-23T19:34:55.521Z,99731.37
2023-03-23T19:37:24.286Z,99732.02
2023-03-23T19:39:53.337Z,99731.99
2023-03-23T19:42:22.166Z,99732.79
2023-03-23T19:44:53.432Z,99734.13
2023-03-23T19:47:22.555Z,99727.73
2023-03-23T19:49:51.667Z,99729.61
2023-03-23T19:52:20.602Z,99726.05
2023-03-23T19:54:49.424Z,99721.77
2023-03-23T19:57:23.154Z,99712.87
2023-03-23T19:59:53.455Z,99709.62
2023-03-23T20:02:22.621Z,99704.33
2023-03-23T20:04:52.583Z,99701.38
2023-03-23T20:07:21.620Z,99698.36
2023-03-23T20:09:50.911Z,99702.09
2023-03-23T20:12:19.814Z,99707.16
2023-03-23T20:14:50.730Z,99713.27
2023-03-23T20:17:20.107Z,99718.89
2023-03-23T20:19:53.047Z,99720.65
2023-03-23T20:22:21.955Z,99719.92
2023-03-23T20:24:51.242Z,99721.29
2023-03-23T20:27:20.742Z,99719.98
2023-03-23T20:29:51.754Z,99719.29
2023-03-23T20:32:20.612Z,99721.77
2023-03-23T20:34:49.887Z,99722.13
2023-03-23T20:37:20.527Z,99712.20
2023-03-23T20:39:49.466Z,99701.69
2023-03-23T20:42:20.908Z,99700.92
2023-03-23T20:44:50.046Z,99703.98
2023-03-23T20:47:19.955Z,99704.14
2023-03-23T20:49:52.782Z,99703.17
2023-03-23T20:52:23.151Z,99700.20
2023-03-23T20:54:52.779Z,99700.29
2023-03-23T20:57:22.686Z,99704.35
2023-03-23T20:59:52.774Z,99702.96
2023-03-23T21:02:24.454Z,99696.70
2023-03-23T21:04:53.970Z,99700.81
2023-03-23T21:07:26.967Z,99705.46
2023-03-23T21:09:56.044Z,99708.48
2023-03-23T21:12:25.226Z,99706.98
2023-03-23T21:14:54.023Z,99714.23
2023-03-23T21:17:22.672Z,99710.11
2023-03-23T21:19:51.794Z,99711.27
2023-03-23T21:22:20.988Z,99707.59
2023-03-23T21:24:50.143Z,99708.48
2023-03-23T21:27:19.507Z,99714.29
2023-03-23T21:29:48.824Z,99712.05
2023-03-23T21:32:18.860Z,99703.55
2023-03-23T21:34:47.823Z,99704.98
2023-03-23T21:37:17.470Z,99704.55
2023-03-23T21:39:47.441Z,99705.92
2023-03-23T21:42:17.300Z,99708.48
2023-03-23T21:44:46.384Z,99708.65
2023-03-23T21:47:15.904Z,99709.54
2023-03-23T21:49:45.468Z,99707.34
2023-03-23T21:52:14.179Z,99711.86
2023-03-23T21:54:43.028Z,99710.95
2023-03-23T21:57:12.040Z,99711.36
2023-03-23T21:59:41.908Z,99722.48
2023-03-23T22:02:12.747Z,99728.07
2023-03-23T22:04:43.324Z,99722.64
2023-03-23T22:07:12.449Z,99723.63
2023-03-23T22:09:44.270Z,99728.11
2023-03-23T22:12:14.115Z,99734.30
2023-03-23T22:14:43.153Z,99741.84
2023-03-23T22:17:11.752Z,99736.71
2023-03-23T22:19:43.173Z,99737.55
2023-03-23T22:22:11.903Z,99735.83
2023-03-23T22:24:43.458Z,99734.70
2023-03-23T22:27:12.082Z,99736.48
2023-03-23T22:29:41.416Z,99736.66
2023-03-23T22:32:10.183Z,99744.93
2023-03-23T22:34:40.299Z,99744.06
2023-03-23T22:37:10.412Z,99741.79
2023-03-23T22:39:39.395Z,99742.51
2023-03-23T22:42:08.811Z,99746.55
2023-03-23T22:44:40.114Z,99745.54
2023-03-23T22:47:08.838Z,99741.16
2023-03-23T22:49:37.753Z,99738.33
2023-03-23T22:52:06.540Z,99743.12
2023-03-23T22:54:35.274Z,99749.62
2023-03-23T22:57:06.574Z,99748.07
2023-03-23T22:59:38.749Z,99744.52
2023-03-23T23:02:07.476Z,99747.62
2023-03-23T23:04:36.600Z,99745.68
2023-03-23T23:07:12.858Z,99748.41
2023-03-23T23:09:43.143Z,99744.40
2023-03-23T23:12:13.854Z,99747.79
2023-03-23T23:14:44.941Z,99754.05
2023-03-23T23:17:13.535Z,99751.19
2023-03-23T23:19:43.536Z,99748.12
2023-03-23T23:22:18.994Z,99751.25
2023-03-23T23:24:48.349Z,99753.55
2023-03-23T23:27:17.828Z,99756.92
2023-03-23T23:29:46.628Z,99753.18
2023-03-23T23:32:15.282Z,99754.63
2023-03-23T23:34:44.812Z,99761.72
2023-03-23T23:37:13.587Z,99761.52
2023-03-23T23:39:43.265Z,99766.03
2023-03-23T23:42:12.385Z,99764.17
2023-03-23T23:44:42.732Z,99769.03
2023-03-23T23:47:11.903Z,99769.99
2023-03-23T23:49:42.152Z,99769.58
2023-03-23T23:52:11.677Z,99766.63
2023-03-23T23:54:42.209Z,99767.09
2023-03-23T23:57:11.369Z,99768.38
2023-03-23T23:59:40.664Z,99767.06
